KPIM/PIM METAR and TAF weather

Enter ICAO airport designator
Station Type Date Time Source
KPIM METAR 2018/12/19 09:15 UTC NOAA

KPIM 190915Z AUTO 11005KT 10SM CLR 06/03 A3006 RMK AO2 T00620031 PWINO


Station Type Date Time Source
KPIM Decoded METAR 2018/12/19 09:15 UTC NOAA

Station name not available
Dec 19, 2018 - 04:15 AM EST / 2018.12.19 0915 UTC
Wind: from the ESE (110 degrees) at 6 MPH (5 KT):0
Visibility: 10 mile(s):0
Sky conditions: clear
Temperature: 43.2 F (6.2 C)
Dew Point: 37.6 F (3.1 C)
Relative Humidity: 80%
Pressure (altimeter): 30.06 in. Hg (1017 hPa)
ob: KPIM 190915Z AUTO 11005KT 10SM CLR 06/03 A3006 RMK AO2 T00620031 PWINO
cycle: 9

Station Type Date Time Source
KPIM TAF UTC NOAA

Error!


Example: see airport list